Terminal Aerodrome Forecast
Issued by NWS Wilmington, OH

Current Version | Previous Version | Text Only | Print | Product List | Glossary Off
Versions: 1 2 3 4 5 6 7 8 9 10 11 12 13 14 15 16 17 18 19 20 21 22 23 24 25 26 27

000
FTUS41 KILN 290500
TAFILN
TAF
KILN 290525Z 2906/3006 16006KT P6SM SCT100
     FM290900 17008KT P6SM VCSH SCT040 BKN080
     FM291200 17012G18KT 5SM -SHRA BKN050
     FM291500 17012G20KT P6SM VCSH BKN040
     FM291800 18012G22KT P6SM VCTS BKN040CB
     FM300000 22010KT P6SM VCSH BKN035
     FM300300 24008KT P6SM BKN035=

USA.gov is the U.S. government's official web portal to all federal, state and local government web resources and services.